Alpine, AK

10:47 AM AKDT on September 18, 2014 (GMT -0800)
Nuiqsut | Change Station
CLOSE
Current Station
Airport
Location: Nuiqsut,
Elevation: 39 ft
Nearby Weather Stations

Elev 39 ft 70.21 °N, 150.99 °W | Updated 54 minutes ago

Overcast
Overcast
37 °F
Feels Like 28 °F
N
16
Wind Variable Wind from ENE

Today
High -- | Low -- °F
--% Chance of Precip.
Yesterday
High -- | Low -- °F
Precip. -- in
7:28 AM 8:24 PM
Waning Crescent, 25% visible
Pressure 29.51 in
Visibility 6.0 miles
Clouds Overcast 300 ft
Windchill 28 °F
Dew Point 36 °F
Humidity 96%
Rainfall 0.00 in
Snow Depth 2 in , 0 in , 0 in
UV 0 out of 12
Pollen Not available.
Air Quality Not available.
Flu Activity Not available.
METAR PAQT 181753Z AUTO 07014KT 6SM BR OVC003 03/02 A2951 RMK SLP992 T00280022 10028 20028 53003 TSNO VIA AUTODIAL

More Conditions Fewer Conditions

Pressure 29.51 in
Visibility 6.0 miles
Clouds Overcast 300 ft
Windchill 28 °F
Dew Point 36 °F
Humidity 96%
Rainfall 0.00 in
Snow Depth 2 in , 0 in , 0 in
UV 0 out of 12
Pollen Not available.
Air Quality Not available.
Flu Activity Not available.
METAR PAQT 181753Z AUTO 07014KT 6SM BR OVC003 03/02 A2951 RMK SLP992 T00280022 10028 20028 53003 TSNO VIA AUTODIAL

More Conditions Fewer Conditions

10-Day Weather Forecast

Almanac

Astronomy

Sep. 18, 2014 Rise Set
Actual Time 7:28 AM AKDT 8:24 PM AKDT
Civil Twilight 6:24 AM AKDT 9:28 PM AKDT
Nautical Twilight 4:58 AM AKDT 10:52 PM AKDT
Astronomical Twilight 2:30 AM AKDT 1:24 AM AKDT
Moon No Moon Rise 7:30 PM AKDT
Length of Visible Light 15h 03m
Length of Day
12h 56m
Tomorrow will be 8m 45s shorter.
Waning Crescent, 25% of the Moon is Illuminated
Today
Waning Crescent
Sep 24
New
Oct 1
First Quarter
Oct 8
Full
Oct 15
Last Quarter

Today's Extremes

State Highs State Lows

Community

WunderPhotos

Upload Photos

1,754,417 photos uploaded!

Nearby

Snow Depth

Station Depth Elevation
Indian Pass 2 in 2300 ft
Port Graham 0 in 300 ft
Moraine 0 in 2100 ft
Eagle Summit 0 in 3650 ft
Munson Ridge 1 in 3100 ft

Earthquake Activity

City Distance Mag. Time & Date
No recent earthquake activity has been reported nearby.
Minimum magnitude displayed is 2.5.

Coastal Water Temperatures

Place Temperature
No Stations Reporting

Nearby Weather Stations